Shao Shan 5 — VRKO9 — position and weather

sailwx.info

Track history (hours):
 
Tides and Currents Weather Stations Pressure Air Temp Water Temp Dewpoint Dewpoint Depression Visibility Wind Speed Wind Dir Waves Ship Positions

Shao Shan 5

Last reported at 2014-Sep-16 23:11 UTC. Time now 2014-Sep-18 07:46 UTC.
Position N 49°58' W 002°53'.

Length 225 m; draft 14.2 m.

Type: Cargo ship. MMSI: 477325700.

Date/timePositionNaut miles runAvg speedWind from/ knotsBaromVisibWave heightAir tempDewpointWater temp
2014-Sep-16 23:11N 49°58' W 002°53'711.2
2014-Sep-16 22:33N 49°60' W 002°43'1211.7
2014-Sep-16 21:33N 50°03' W 002°25'1212.6
2014-Sep-16 20:33N 50°06' W 002°06'1313.4
2014-Sep-16 19:33N 50°10' W 001°46'1513.6
2014-Sep-16 18:25N 50°14' W 001°23'1213.3
2014-Sep-16 17:33N 50°17' W 001°06'1212.4
2014-Sep-16 16:33N 50°21' W 000°47'1111.3
2014-Sep-16 15:33N 50°24' W 000°30'1010.2
2014-Sep-16 14:33N 50°27' W 000°15'1110.5
2014-Sep-16 13:33N 50°30' E 000°01'1010.3
2014-Sep-16 12:32N 50°33' E 000°17'1110.9
2014-Sep-16 11:33N 50°36' E 000°33'1211.9
2014-Sep-16 10:33N 50°43' E 000°48'1212.4
2014-Sep-16 09:33N 50°51' E 001°04'1212.1
2014-Sep-16 08:33N 50°59' E 001°18'1111.1
2014-Sep-16 07:33N 51°06' E 001°32'1010.2
2014-Sep-16 06:34N 51°13' E 001°44'10 9.8
2014-Sep-16 05:33N 51°21' E 001°53'1010.4
2014-Sep-16 04:33N 51°29' E 002°03'1111.1
2014-Sep-16 03:33N 51°37' E 002°15'1212.1
2014-Sep-16 02:33N 51°47' E 002°27'1212.4
2014-Sep-16 01:33N 51°57' E 002°38'1312.8
2014-Sep-16 00:33N 52°10' E 002°42'1312.4
2014-Sep-15 23:32N 52°22' E 002°47'1211.9
2014-Sep-15 22:33N 52°32' E 002°56'11010.8
2014-Sep-15 12:25N 54°08' E 004°25'29810.7
2014-Sep-14 08:33N 57°54' E 010°14'12 9.7
2014-Sep-14 07:19N 57°52' E 010°37'1011.6
2014-Sep-14 06:29N 57°46' E 010°50'1010.4
2014-Sep-14 05:33N 57°39' E 011°03'1211.5
2014-Sep-14 04:33N 57°31' E 011°19'1111.0
2014-Sep-14 03:33N 57°22' E 011°29'1111.2
2014-Sep-14 02:33N 57°11' E 011°36'1111.2
2014-Sep-14 01:33N 57°01' E 011°43'54 9.9
2014-Sep-13 20:08N 56°09' E 011°15'93 9.7
2014-Sep-13 10:33N 54°37' E 010°57'1111.5
2014-Sep-13 09:33N 54°35' E 011°17'1111.4
2014-Sep-13 08:33N 54°30' E 011°35'1110.9
2014-Sep-13 07:33N 54°26' E 011°52'1110.7
2014-Sep-13 06:33N 54°27' E 012°11'1010.1
2014-Sep-13 05:33N 54°36' E 012°17'1111.1
2014-Sep-13 04:33N 54°42' E 012°33'1111.1
2014-Sep-13 03:33N 54°48' E 012°49'1211.3
2014-Sep-13 02:27N 54°53' E 013°10'1111.5
2014-Sep-13 01:31N 54°56' E 013°27'2411.2
2014-Sep-12 23:21N 55°06' E 014°06'1011.4
2014-Sep-12 22:27N 55°14' E 014°18'1011.3
2014-Sep-12 21:33N 55°22' E 014°29'1211.1
2014-Sep-12 20:31N 55°29' E 014°44'4611.3
2014-Sep-12 16:24N 55°45' E 016°02'4611.4
2014-Sep-12 12:22N 55°56' E 017°21'1111.5
2014-Sep-12 11:26N 55°58' E 017°40'2711.5
2014-Sep-12 09:08N 56°13' E 018°20'1011.8
2014-Sep-12 08:16N 56°18' E 018°35'22911.5
2014-Sep-11 12:21N 59°30' E 022°30'1011.6
2014-Sep-11 11:31N 59°33' E 022°49'1111.8
2014-Sep-11 10:33N 59°37' E 023°10'1111.5
2014-Sep-11 09:33N 59°39' E 023°32'1111.4
2014-Sep-11 08:33N 59°43' E 023°53'1211.6
2014-Sep-11 07:33N 59°46' E 024°15'1211.5
2014-Sep-11 06:33N 59°49' E 024°38'3511.5
2014-Sep-11 03:32N 59°55' E 025°46'1111.5
2014-Sep-11 02:34N 59°58' E 026°07'1111.5
2014-Sep-11 01:33N 60°01' E 026°30'1111.3
2014-Sep-11 00:33N 60°00' E 026°52'1110.6
2014-Sep-10 23:33N 60°03' E 027°13'1411.6
2014-Sep-10 22:19N 60°10' E 027°38'  
2014-Sep-07 12:28N 60°04' E 027°23'1212.8
2014-Sep-07 11:31N 59°58' E 027°02'1312.8
2014-Sep-07 10:31N 59°59' E 026°37'1313.2
2014-Sep-07 09:33N 59°56' E 026°12'1313.3
2014-Sep-07 08:33N 59°52' E 025°47'1613.1
2014-Sep-07 07:21N 59°49' E 025°16'1013.0
2014-Sep-07 06:33N 59°47' E 024°56'1313.2
2014-Sep-07 05:33N 59°44' E 024°30'1313.0
2014-Sep-07 04:33N 59°40' E 024°06'1312.9
2014-Sep-07 03:33N 59°37' E 023°41'1313.2
2014-Sep-07 02:33N 59°33' E 023°16'1712.9
2014-Sep-07 01:15N 59°28' E 022°45'2313.2
2014-Sep-06 23:29N 59°15' E 022°06'  
Track history (hours):
 
Tides and Currents Weather Stations Pressure Air Temp Water Temp Dewpoint Dewpoint Depression Visibility Wind Speed Wind Dir Waves Ship Positions

Shao Shan 5

Last reported at 2014-Sep-16 23:11 UTC. Time now 2014-Sep-18 07:46 UTC.
Position N 49°58' W 002°53'.

Length 225 m; draft 14.2 m.

Type: Cargo ship. MMSI: 477325700.

Date/timePositionNaut miles runAvg speedWind from/ knotsBaromVisibWave heightAir tempDewpointWater temp
2014-Sep-16 23:11N 49°58' W 002°53'711.2
2014-Sep-16 22:33N 49°60' W 002°43'1211.7
2014-Sep-16 21:33N 50°03' W 002°25'1212.6
2014-Sep-16 20:33N 50°06' W 002°06'1313.4
2014-Sep-16 19:33N 50°10' W 001°46'1513.6
2014-Sep-16 18:25N 50°14' W 001°23'1213.3
2014-Sep-16 17:33N 50°17' W 001°06'1212.4
2014-Sep-16 16:33N 50°21' W 000°47'1111.3
2014-Sep-16 15:33N 50°24' W 000°30'1010.2
2014-Sep-16 14:33N 50°27' W 000°15'1110.5
2014-Sep-16 13:33N 50°30' E 000°01'1010.3
2014-Sep-16 12:32N 50°33' E 000°17'1110.9
2014-Sep-16 11:33N 50°36' E 000°33'1211.9
2014-Sep-16 10:33N 50°43' E 000°48'1212.4
2014-Sep-16 09:33N 50°51' E 001°04'1212.1
2014-Sep-16 08:33N 50°59' E 001°18'1111.1
2014-Sep-16 07:33N 51°06' E 001°32'1010.2
2014-Sep-16 06:34N 51°13' E 001°44'10 9.8
2014-Sep-16 05:33N 51°21' E 001°53'1010.4
2014-Sep-16 04:33N 51°29' E 002°03'1111.1
2014-Sep-16 03:33N 51°37' E 002°15'1212.1
2014-Sep-16 02:33N 51°47' E 002°27'1212.4
2014-Sep-16 01:33N 51°57' E 002°38'1312.8
2014-Sep-16 00:33N 52°10' E 002°42'1312.4
2014-Sep-15 23:32N 52°22' E 002°47'1211.9
2014-Sep-15 22:33N 52°32' E 002°56'11010.8
2014-Sep-15 12:25N 54°08' E 004°25'29810.7
2014-Sep-14 08:33N 57°54' E 010°14'12 9.7
2014-Sep-14 07:19N 57°52' E 010°37'1011.6
2014-Sep-14 06:29N 57°46' E 010°50'1010.4
2014-Sep-14 05:33N 57°39' E 011°03'1211.5
2014-Sep-14 04:33N 57°31' E 011°19'1111.0
2014-Sep-14 03:33N 57°22' E 011°29'1111.2
2014-Sep-14 02:33N 57°11' E 011°36'1111.2
2014-Sep-14 01:33N 57°01' E 011°43'54 9.9
2014-Sep-13 20:08N 56°09' E 011°15'93 9.7
2014-Sep-13 10:33N 54°37' E 010°57'1111.5
2014-Sep-13 09:33N 54°35' E 011°17'1111.4
2014-Sep-13 08:33N 54°30' E 011°35'1110.9
2014-Sep-13 07:33N 54°26' E 011°52'1110.7
2014-Sep-13 06:33N 54°27' E 012°11'1010.1
2014-Sep-13 05:33N 54°36' E 012°17'1111.1
2014-Sep-13 04:33N 54°42' E 012°33'1111.1
2014-Sep-13 03:33N 54°48' E 012°49'1211.3
2014-Sep-13 02:27N 54°53' E 013°10'1111.5
2014-Sep-13 01:31N 54°56' E 013°27'2411.2
2014-Sep-12 23:21N 55°06' E 014°06'1011.4
2014-Sep-12 22:27N 55°14' E 014°18'1011.3
2014-Sep-12 21:33N 55°22' E 014°29'1211.1
2014-Sep-12 20:31N 55°29' E 014°44'4611.3
2014-Sep-12 16:24N 55°45' E 016°02'4611.4
2014-Sep-12 12:22N 55°56' E 017°21'1111.5
2014-Sep-12 11:26N 55°58' E 017°40'2711.5
2014-Sep-12 09:08N 56°13' E 018°20'1011.8
2014-Sep-12 08:16N 56°18' E 018°35'22911.5
2014-Sep-11 12:21N 59°30' E 022°30'1011.6
2014-Sep-11 11:31N 59°33' E 022°49'1111.8
2014-Sep-11 10:33N 59°37' E 023°10'1111.5
2014-Sep-11 09:33N 59°39' E 023°32'1111.4
2014-Sep-11 08:33N 59°43' E 023°53'1211.6
2014-Sep-11 07:33N 59°46' E 024°15'1211.5
2014-Sep-11 06:33N 59°49' E 024°38'3511.5
2014-Sep-11 03:32N 59°55' E 025°46'1111.5
2014-Sep-11 02:34N 59°58' E 026°07'1111.5
2014-Sep-11 01:33N 60°01' E 026°30'1111.3
2014-Sep-11 00:33N 60°00' E 026°52'1110.6
2014-Sep-10 23:33N 60°03' E 027°13'1411.6
2014-Sep-10 22:19N 60°10' E 027°38'  
2014-Sep-07 12:28N 60°04' E 027°23'1212.8
2014-Sep-07 11:31N 59°58' E 027°02'1312.8
2014-Sep-07 10:31N 59°59' E 026°37'1313.2
2014-Sep-07 09:33N 59°56' E 026°12'1313.3
2014-Sep-07 08:33N 59°52' E 025°47'1613.1
2014-Sep-07 07:21N 59°49' E 025°16'1013.0
2014-Sep-07 06:33N 59°47' E 024°56'1313.2
2014-Sep-07 05:33N 59°44' E 024°30'1313.0
2014-Sep-07 04:33N 59°40' E 024°06'1312.9
2014-Sep-07 03:33N 59°37' E 023°41'1313.2
2014-Sep-07 02:33N 59°33' E 023°16'1712.9
2014-Sep-07 01:15N 59°28' E 022°45'2313.2
2014-Sep-06 23:29N 59°15' E 022°06'  

Dump ship's entire track history